AirNav   TITAN Aviation Fuels
 
 950 users online  

69AZ Maricopa County Sheriffs Office Heliport
Mesa, Arizona, USA

GOING TO MESA?


FAA INFORMATION EFFECTIVE 08 SEPTEMBER 2022

Location

FAA Identifier: 69AZ
Lat/Long: 33-22-54.0000N 111-49-38.0000W
33-22.900000N 111-49.633333W
33.3816667,-111.8272222
(estimated)
Elevation: 1257 ft. / 383 m (estimated)
Variation: 12E (2000)
From city: 2 miles S of MESA, AZ
Time zone: UTC -7 (year round; does not observe DST)
Zip code: 85210

Heliport Operations

Heliport use: Private use. Permission required prior to landing
Activation date: 11/2002
Control tower: no
ARTCC: ALBUQUERQUE CENTER
FSS: PRESCOTT FLIGHT SERVICE STATION
Attendance: CONTINUOUS
Wind indicator: lighted
Segmented circle: no
Lights: SS-SR

Heliport Communications

WX AWOS-3PT at CHD (7 nm S): PHONE 480-814-9952
WX ASOS at FFZ (7 nm NE): PHONE 480-641-4111
WX AWOS-3 at IWA (10 nm SE): 133.5 (480-988-9428)
WX ASOS at PHX (10 nm W): PHONE 602-231-8557
WX ASOS at SDL (15 nm N): PHONE 480-483-3049

Nearby radio navigation aids

VOR radial/distance  VOR name  Freq  Var
PXRr101/7.8PHOENIX VORTAC115.6012E
IWAr285/10.0WILLIE VORTAC113.3013E
TFDr356/30.0STANFIELD VORTAC114.8012E

Heliport Services

Runway Information

Helipad H1

Dimensions: 50 x 50 ft. / 15 x 15 m
Surface: concrete
ROOFTOP FACILITY
Runway edge lights: PERI
Operational restrictions: FATO 65 FT DIAM.
Traffic pattern: leftleft

Heliport Ownership and Management from official FAA records

Ownership: Publicly-owned
Owner: MARICOPA COUNTY SHERIFF'S OFFICE
1840 S. LEWIS ST.
MESA, AZ 85210
Phone 602-256-1853
Manager: KEVIN KRAAYENBRINK
23636 N 7TH ST
PHOENIX, AZ 85024
Phone 602-876-1040

Additional Remarks

FOR CD CTC PHOENIX APCH AT 602-306-2565.

Instrument Procedures

There are no published instrument procedures at 69AZ.

Some nearby airports with instrument procedures:

P19 - Stellar Airpark (7 nm SW)
KCHD - Chandler Municipal Airport (7 nm S)
KFFZ - Falcon Field Airport (7 nm NE)
KIWA - Phoenix-Mesa Gateway Airport (10 nm SE)
KPHX - Phoenix Sky Harbor International Airport (10 nm W)
KSDL - Scottsdale Airport (15 nm N)
 
Loc | Ops | Rwys | IFR | FBO | Links
Com | Nav | Svcs | Stats | Notes
Area around 69AZ (Maricopa County Sheriffs Office Heliport)
 
Road maps at: MapQuest Bing Google
 
Aerial photo
No photo
 
Sectional chart

 
Airport distance calculator
Flying to Maricopa County Sheriffs Office Heliport? Find the distance to fly.

From to 69AZ

Sunrise and sunset
Times for 02-Oct-2022
 Local
(UTC-7)
 Zulu
(UTC)
Morning civil twilight05:5912:59
Sunrise06:2313:23
Sunset18:1001:10
Evening civil twilight18:3501:35

Current date and time
Zulu (UTC)  02-Oct-2022 19:52:26
Local (UTC-7)  02-Oct-2022 12:52:26
 
METAR
KCHD 
7nm S 
021847Z 00000KT 10SM CLR 33/14 A2992
KFFZ 
8nm NE 
021854Z VRB04KT 10SM CLR 32/14 A2992 RMK AO2 SLP106 T03170139
KIWA 
10nm SE 
021853Z VRB03KT 10SM CLR 32/12 A2993
KPHX 
12nm W 
021851Z 12006KT 10SM FEW100 FEW250 33/13 A2990 RMK AO2 SLP104 TCU DSNT NW T03280133 $
KSDL 
15nm N 
021853Z VRB06KT 10SM CLR 32/13 A2994 RMK AO2 SLP111 T03170128
TAF
KIWA 
10nm SE 
021720Z 0218/0318 18008KT P6SM FEW100 FEW150 FM022200 22007KT P6SM FEW100 FEW150 FM030000 26006KT P6SM FEW100 FEW150 FM030300 07005KT P6SM FEW100 SCT150 SCT250 FM030500 13008KT P6SM FEW100 FEW150
KPHX 
12nm W 
021720Z 0218/0324 16007KT P6SM FEW100 FEW150 FM022200 21007KT P6SM FEW100 FEW150 FM030000 25006KT P6SM FEW100 FEW150 FM030400 10005KT P6SM FEW100 SCT150 SCT250 FM031700 14008KT P6SM FEW100 FEW150 FM032100 28008KT P6SM FEW100 FEW150
KSDL 
15nm N 
021720Z 0218/0318 VRB04KT P6SM FEW100 FEW150 FM022100 21007KT P6SM FEW100 FEW150 FM030300 04005KT P6SM FEW100 SCT150 SCT250 FM030800 VRB03KT P6SM FEW100 FEW150
NOTAMs
Click for the latest NOTAMs
NOTAMs are issued by the DoD/FAA and will open in a separate window not controlled by AirNav.

 

 
 

Would you like to see your business listed on this page?

 If your business provides an interesting product or service to pilots, flight crews, aircraft, or users of the Maricopa County Sheriffs Office Heliport, you should consider listing it here.  To start the listing process, click on the button below
 
Add a business
 

Other Pages about Maricopa County Sheriffs Office Heliport

Update a link
 
Copyright © AirNav, LLC. All rights reserved. Privacy Policy  Contact